Terminal Aerodrome Forecast
Issued by NWS

Home | Current Version | Previous Version | Text Only | Print | Product List | Glossary On
Versions: 1 2 3 4 5 6 7 8 9 10 11 12 13 14 15 16 17 18
053
FTUS43 KFGF 310520
TAFDVL
TAF
KDVL 310520Z 3106/0106 08013G22KT P6SM -RA OVC080
     FM311100 21010KT P6SM VCSH BKN015
     FM311300 23007KT P6SM BKN025
     FM311800 23009KT P6SM BKN050
     FM312200 26009KT P6SM VCSH BKN040
     FM010200 31010KT P6SM VCSH OVC025=

USA.gov is the U.S. government's official web portal to all federal, state and local government web resources and services.